sensor_id;sensor_type;location;lat;lon;timestamp;temperature;humidity
73570;SHT30;61850;54.980;73.298;2023-03-17T00:00:39;-4.44;84.99
73570;SHT30;61850;54.980;73.298;2023-03-17T00:03:06;-4.48;85.32
73570;SHT30;61850;54.980;73.298;2023-03-17T00:05:34;-4.43;86.54
73570;SHT30;61850;54.980;73.298;2023-03-17T00:10:57;-4.30;85.47
73570;SHT30;61850;54.980;73.298;2023-03-17T00:13:33;-4.43;85.28
73570;SHT30;61850;54.980;73.298;2023-03-17T00:16:01;-4.50;85.86
73570;SHT30;61850;54.980;73.298;2023-03-17T00:18:27;-4.47;85.43
73570;SHT30;61850;54.980;73.298;2023-03-17T00:21:09;-4.37;86.54
73570;SHT30;61850;54.980;73.298;2023-03-17T00:23:47;-4.40;85.32
73570;SHT30;61850;54.980;73.298;2023-03-17T00:26:22;-4.46;86.17
73570;SHT30;61850;54.980;73.298;2023-03-17T00:28:49;-4.37;86.27
73570;SHT30;61850;54.980;73.298;2023-03-17T00:31:23;-4.29;86.90
73570;SHT30;61850;54.980;73.298;2023-03-17T00:33:52;-4.39;85.24
73570;SHT30;61850;54.980;73.298;2023-03-17T00:36:20;-4.30;86.58
73570;SHT30;61850;54.980;73.298;2023-03-17T00:38:52;-4.23;86.17
73570;SHT30;61850;54.980;73.298;2023-03-17T00:41:19;-4.17;86.63
73570;SHT30;61850;54.980;73.298;2023-03-17T00:43:45;-4.16;86.83
73570;SHT30;61850;54.980;73.298;2023-03-17T00:46:23;-4.12;86.75
73570;SHT30;61850;54.980;73.298;2023-03-17T00:48:49;-4.16;85.54
73570;SHT30;61850;54.980;73.298;2023-03-17T00:51:15;-4.23;85.54
73570;SHT30;61850;54.980;73.298;2023-03-17T00:53:53;-4.20;85.67
73570;SHT30;61850;54.980;73.298;2023-03-17T00:56:19;-4.20;86.10
73570;SHT30;61850;54.980;73.298;2023-03-17T00:58:47;-4.14;87.56
73570;SHT30;61850;54.980;73.298;2023-03-17T01:01:14;-4.09;86.95
73570;SHT30;61850;54.980;73.298;2023-03-17T01:03:45;-4.03;86.12
73570;SHT30;61850;54.980;73.298;2023-03-17T01:06:14;-3.96;86.31
73570;SHT30;61850;54.980;73.298;2023-03-17T01:08:42;-3.92;86.78
73570;SHT30;61850;54.980;73.298;2023-03-17T01:11:12;-3.88;85.71
73570;SHT30;61850;54.980;73.298;2023-03-17T01:13:39;-3.98;85.20
73570;SHT30;61850;54.980;73.298;2023-03-17T01:16:07;-4.00;86.21
73570;SHT30;61850;54.980;73.298;2023-03-17T01:18:34;-4.00;85.70
73570;SHT30;61850;54.980;73.298;2023-03-17T01:21:03;-4.06;86.00
73570;SHT30;61850;54.980;73.298;2023-03-17T01:23:29;-4.10;86.28
73570;SHT30;61850;54.980;73.298;2023-03-17T01:25:56;-3.98;88.05
73570;SHT30;61850;54.980;73.298;2023-03-17T01:28:27;-3.98;87.04
73570;SHT30;61850;54.980;73.298;2023-03-17T01:30:55;-3.93;86.47
73570;SHT30;61850;54.980;73.298;2023-03-17T01:33:21;-3.89;86.39
73570;SHT30;61850;54.980;73.298;2023-03-17T01:35:49;-3.82;86.55
73570;SHT30;61850;54.980;73.298;2023-03-17T01:38:15;-3.78;86.45
73570;SHT30;61850;54.980;73.298;2023-03-17T01:40:48;-3.68;86.20
73570;SHT30;61850;54.980;73.298;2023-03-17T01:43:22;-3.68;86.00
73570;SHT30;61850;54.980;73.298;2023-03-17T01:51:40;-3.50;86.34
73570;SHT30;61850;54.980;73.298;2023-03-17T01:54:11;-3.44;86.26
73570;SHT30;61850;54.980;73.298;2023-03-17T01:56:39;-3.40;86.13
73570;SHT30;61850;54.980;73.298;2023-03-17T01:59:06;-3.27;85.81
73570;SHT30;61850;54.980;73.298;2023-03-17T02:01:35;-3.17;85.96
73570;SHT30;61850;54.980;73.298;2023-03-17T02:04:02;-3.14;85.87
73570;SHT30;61850;54.980;73.298;2023-03-17T02:06:29;-3.07;85.78
73570;SHT30;61850;54.980;73.298;2023-03-17T02:08:56;-3.07;85.45
73570;SHT30;61850;54.980;73.298;2023-03-17T02:11:22;-3.04;85.79
73570;SHT30;61850;54.980;73.298;2023-03-17T02:13:52;-3.07;85.88
73570;SHT30;61850;54.980;73.298;2023-03-17T02:16:20;-3.07;85.95
73570;SHT30;61850;54.980;73.298;2023-03-17T02:18:46;-3.02;85.62
73570;SHT30;61850;54.980;73.298;2023-03-17T02:21:26;-2.93;85.36
73570;SHT30;61850;54.980;73.298;2023-03-17T02:23:53;-2.96;85.42
73570;SHT30;61850;54.980;73.298;2023-03-17T02:26:19;-2.92;84.69
73570;SHT30;61850;54.980;73.298;2023-03-17T02:28:50;-2.97;84.53
73570;SHT30;61850;54.980;73.298;2023-03-17T02:31:17;-3.00;84.53
73570;SHT30;61850;54.980;73.298;2023-03-17T02:33:44;-2.93;84.82
73570;SHT30;61850;54.980;73.298;2023-03-17T02:36:21;-2.85;84.26
73570;SHT30;61850;54.980;73.298;2023-03-17T02:38:47;-2.81;84.09
73570;SHT30;61850;54.980;73.298;2023-03-17T02:41:13;-2.78;84.13
73570;SHT30;61850;54.980;73.298;2023-03-17T02:43:48;-2.85;84.08
73570;SHT30;61850;54.980;73.298;2023-03-17T02:46:15;-2.81;84.46
73570;SHT30;61850;54.980;73.298;2023-03-17T02:48:41;-2.68;84.09
73570;SHT30;61850;54.980;73.298;2023-03-17T02:51:08;-2.65;83.90
73570;SHT30;61850;54.980;73.298;2023-03-17T02:53:35;-2.64;84.01
73570;SHT30;61850;54.980;73.298;2023-03-17T02:56:02;-2.43;83.65
73570;SHT30;61850;54.980;73.298;2023-03-17T02:58:28;-2.40;83.37
73570;SHT30;61850;54.980;73.298;2023-03-17T03:00:59;-2.36;83.13
73570;SHT30;61850;54.980;73.298;2023-03-17T03:03:28;-2.44;83.13
73570;SHT30;61850;54.980;73.298;2023-03-17T03:05:59;-2.29;83.23
73570;SHT30;61850;54.980;73.298;2023-03-17T03:08:25;-2.34;82.84
73570;SHT30;61850;54.980;73.298;2023-03-17T03:10:52;-2.31;82.80
73570;SHT30;61850;54.980;73.298;2023-03-17T03:13:19;-2.37;82.88
73570;SHT30;61850;54.980;73.298;2023-03-17T03:15:45;-2.43;83.07
73570;SHT30;61850;54.980;73.298;2023-03-17T03:18:15;-2.31;82.89
73570;SHT30;61850;54.980;73.298;2023-03-17T03:20:42;-2.26;82.90
73570;SHT30;61850;54.980;73.298;2023-03-17T03:23:11;-2.30;82.75
73570;SHT30;61850;54.980;73.298;2023-03-17T03:25:37;-2.30;82.62
73570;SHT30;61850;54.980;73.298;2023-03-17T03:28:07;-2.06;82.25
73570;SHT30;61850;54.980;73.298;2023-03-17T03:30:33;-1.68;81.34
73570;SHT30;61850;54.980;73.298;2023-03-17T03:33:00;-1.76;81.12
73570;SHT30;61850;54.980;73.298;2023-03-17T03:35:26;-1.68;80.78
73570;SHT30;61850;54.980;73.298;2023-03-17T03:37:52;-1.54;80.65
73570;SHT30;61850;54.980;73.298;2023-03-17T03:40:24;-1.59;80.50
73570;SHT30;61850;54.980;73.298;2023-03-17T03:42:50;-1.51;80.62
73570;SHT30;61850;54.980;73.298;2023-03-17T03:45:16;-1.44;80.38
73570;SHT30;61850;54.980;73.298;2023-03-17T03:47:42;-1.51;80.37
73570;SHT30;61850;54.980;73.298;2023-03-17T03:50:08;-1.50;80.26
73570;SHT30;61850;54.980;73.298;2023-03-17T03:52:35;-1.47;80.23
73570;SHT30;61850;54.980;73.298;2023-03-17T03:55:02;-1.28;80.07
73570;SHT30;61850;54.980;73.298;2023-03-17T03:57:28;-1.58;79.87
73570;SHT30;61850;54.980;73.298;2023-03-17T03:59:54;-1.48;79.79
73570;SHT30;61850;54.980;73.298;2023-03-17T04:02:20;-1.48;79.75
73570;SHT30;61850;54.980;73.298;2023-03-17T04:04:45;-1.48;79.77
73570;SHT30;61850;54.980;73.298;2023-03-17T04:07:22;-1.48;79.74
73570;SHT30;61850;54.980;73.298;2023-03-17T04:09:52;-1.50;79.54
73570;SHT30;61850;54.980;73.298;2023-03-17T04:12:23;-1.28;79.23
73570;SHT30;61850;54.980;73.298;2023-03-17T04:14:58;-1.30;78.84
73570;SHT30;61850;54.980;73.298;2023-03-17T04:17:24;-1.41;79.33
73570;SHT30;61850;54.980;73.298;2023-03-17T04:19:50;-1.34;79.19
73570;SHT30;61850;54.980;73.298;2023-03-17T04:22:16;-1.23;78.76
73570;SHT30;61850;54.980;73.298;2023-03-17T04:24:42;-1.21;78.80
73570;SHT30;61850;54.980;73.298;2023-03-17T04:27:09;-1.31;78.68
73570;SHT30;61850;54.980;73.298;2023-03-17T04:29:35;-1.18;78.82
73570;SHT30;61850;54.980;73.298;2023-03-17T04:32:10;-1.06;78.40
73570;SHT30;61850;54.980;73.298;2023-03-17T04:34:36;-1.00;78.14
73570;SHT30;61850;54.980;73.298;2023-03-17T04:37:02;-1.03;78.54
73570;SHT30;61850;54.980;73.298;2023-03-17T04:39:28;-0.79;78.24
73570;SHT30;61850;54.980;73.298;2023-03-17T04:41:58;-0.68;77.65
73570;SHT30;61850;54.980;73.298;2023-03-17T04:44:25;-0.68;77.46
73570;SHT30;61850;54.980;73.298;2023-03-17T04:47:03;-0.59;77.15
73570;SHT30;61850;54.980;73.298;2023-03-17T04:49:38;-0.61;77.36
73570;SHT30;61850;54.980;73.298;2023-03-17T04:52:14;-0.52;77.22
73570;SHT30;61850;54.980;73.298;2023-03-17T04:54:40;-0.55;77.21
73570;SHT30;61850;54.980;73.298;2023-03-17T04:57:06;-0.35;76.74
73570;SHT30;61850;54.980;73.298;2023-03-17T04:59:38;-0.22;76.27
73570;SHT30;61850;54.980;73.298;2023-03-17T05:02:05;-0.11;76.25
73570;SHT30;61850;54.980;73.298;2023-03-17T05:04:32;0.07;75.94
73570;SHT30;61850;54.980;73.298;2023-03-17T05:07:00;0.04;75.94
73570;SHT30;61850;54.980;73.298;2023-03-17T05:09:27;0.04;75.79
73570;SHT30;61850;54.980;73.298;2023-03-17T05:12:00;0.10;76.01
73570;SHT30;61850;54.980;73.298;2023-03-17T05:14:32;0.37;75.28
73570;SHT30;61850;54.980;73.298;2023-03-17T05:17:11;0.30;75.10
73570;SHT30;61850;54.980;73.298;2023-03-17T05:19:38;0.42;75.13
73570;SHT30;61850;54.980;73.298;2023-03-17T05:22:09;0.02;76.22
73570;SHT30;61850;54.980;73.298;2023-03-17T05:24:46;0.10;76.17
73570;SHT30;61850;54.980;73.298;2023-03-17T05:27:14;0.17;76.02
73570;SHT30;61850;54.980;73.298;2023-03-17T05:29:41;0.32;75.36
73570;SHT30;61850;54.980;73.298;2023-03-17T05:32:08;0.23;75.28
73570;SHT30;61850;54.980;73.298;2023-03-17T05:34:34;0.24;75.60
73570;SHT30;61850;54.980;73.298;2023-03-17T05:37:01;0.25;75.38
73570;SHT30;61850;54.980;73.298;2023-03-17T05:39:28;0.25;75.23
73570;SHT30;61850;54.980;73.298;2023-03-17T05:42:00;0.21;75.10
73570;SHT30;61850;54.980;73.298;2023-03-17T05:44:27;0.15;75.40
73570;SHT30;61850;54.980;73.298;2023-03-17T05:46:56;0.24;75.35
73570;SHT30;61850;54.980;73.298;2023-03-17T05:49:25;0.23;75.25
73570;SHT30;61850;54.980;73.298;2023-03-17T05:51:51;0.24;75.52
73570;SHT30;61850;54.980;73.298;2023-03-17T05:54:19;0.47;75.15
73570;SHT30;61850;54.980;73.298;2023-03-17T05:56:54;0.71;74.56
73570;SHT30;61850;54.980;73.298;2023-03-17T05:59:21;0.85;74.10
73570;SHT30;61850;54.980;73.298;2023-03-17T06:01:48;0.76;73.93
73570;SHT30;61850;54.980;73.298;2023-03-17T06:04:15;0.96;73.66
73570;SHT30;61850;54.980;73.298;2023-03-17T06:06:47;1.15;73.31
73570;SHT30;61850;54.980;73.298;2023-03-17T06:09:14;0.95;73.40
73570;SHT30;61850;54.980;73.298;2023-03-17T06:11:43;1.13;73.55
73570;SHT30;61850;54.980;73.298;2023-03-17T06:14:15;0.90;73.55
73570;SHT30;61850;54.980;73.298;2023-03-17T06:16:42;1.10;73.59
73570;SHT30;61850;54.980;73.298;2023-03-17T06:19:13;0.82;74.10
73570;SHT30;61850;54.980;73.298;2023-03-17T06:21:39;0.75;74.31
73570;SHT30;61850;54.980;73.298;2023-03-17T06:24:11;0.93;74.22
73570;SHT30;61850;54.980;73.298;2023-03-17T06:26:38;1.27;73.44
73570;SHT30;61850;54.980;73.298;2023-03-17T06:29:10;1.17;73.11
73570;SHT30;61850;54.980;73.298;2023-03-17T06:31:42;1.22;73.03
73570;SHT30;61850;54.980;73.298;2023-03-17T06:34:15;1.22;73.22
73570;SHT30;61850;54.980;73.298;2023-03-17T06:36:42;1.13;73.47
73570;SHT30;61850;54.980;73.298;2023-03-17T06:39:13;1.10;73.40
73570;SHT30;61850;54.980;73.298;2023-03-17T06:41:41;1.48;72.87
73570;SHT30;61850;54.980;73.298;2023-03-17T06:44:07;1.41;72.72
73570;SHT30;61850;54.980;73.298;2023-03-17T06:46:33;1.38;73.44
73570;SHT30;61850;54.980;73.298;2023-03-17T06:49:04;1.30;72.94
73570;SHT30;61850;54.980;73.298;2023-03-17T06:51:31;1.33;73.30
73570;SHT30;61850;54.980;73.298;2023-03-17T06:54:00;1.37;72.85
73570;SHT30;61850;54.980;73.298;2023-03-17T06:56:26;1.20;73.73
73570;SHT30;61850;54.980;73.298;2023-03-17T06:58:52;1.26;74.08
73570;SHT30;61850;54.980;73.298;2023-03-17T07:01:18;1.40;73.60
73570;SHT30;61850;54.980;73.298;2023-03-17T07:03:50;1.36;73.57
73570;SHT30;61850;54.980;73.298;2023-03-17T07:06:22;1.54;73.72
73570;SHT30;61850;54.980;73.298;2023-03-17T07:08:48;1.69;73.76
73570;SHT30;61850;54.980;73.298;2023-03-17T07:11:15;1.27;73.78
73570;SHT30;61850;54.980;73.298;2023-03-17T07:13:41;1.20;74.47
73570;SHT30;61850;54.980;73.298;2023-03-17T07:16:13;1.30;74.76
73570;SHT30;61850;54.980;73.298;2023-03-17T07:18:51;1.40;74.83
73570;SHT30;61850;54.980;73.298;2023-03-17T07:21:27;1.41;75.28
73570;SHT30;61850;54.980;73.298;2023-03-17T07:23:53;1.40;74.92
73570;SHT30;61850;54.980;73.298;2023-03-17T07:26:20;1.44;75.25
73570;SHT30;61850;54.980;73.298;2023-03-17T07:28:46;1.34;75.33
73570;SHT30;61850;54.980;73.298;2023-03-17T07:31:12;1.29;75.29
73570;SHT30;61850;54.980;73.298;2023-03-17T07:33:39;1.31;75.44
73570;SHT30;61850;54.980;73.298;2023-03-17T07:36:06;1.46;75.19
73570;SHT30;61850;54.980;73.298;2023-03-17T07:38:43;1.47;75.60
73570;SHT30;61850;54.980;73.298;2023-03-17T07:41:09;1.64;75.05
73570;SHT30;61850;54.980;73.298;2023-03-17T07:43:36;1.62;75.45
73570;SHT30;61850;54.980;73.298;2023-03-17T07:46:03;1.62;75.19
73570;SHT30;61850;54.980;73.298;2023-03-17T07:48:29;1.58;74.90
73570;SHT30;61850;54.980;73.298;2023-03-17T07:50:56;1.55;74.91
73570;SHT30;61850;54.980;73.298;2023-03-17T07:53:22;1.19;75.28
73570;SHT30;61850;54.980;73.298;2023-03-17T07:55:58;1.04;76.06
73570;SHT30;61850;54.980;73.298;2023-03-17T07:58:25;0.99;76.18
73570;SHT30;61850;54.980;73.298;2023-03-17T08:01:02;0.99;76.26
73570;SHT30;61850;54.980;73.298;2023-03-17T08:03:28;1.06;75.91
73570;SHT30;61850;54.980;73.298;2023-03-17T08:05:57;1.12;75.50
73570;SHT30;61850;54.980;73.298;2023-03-17T08:08:24;1.07;75.89
73570;SHT30;61850;54.980;73.298;2023-03-17T08:11:00;1.19;75.45
73570;SHT30;61850;54.980;73.298;2023-03-17T08:13:29;1.27;75.47
73570;SHT30;61850;54.980;73.298;2023-03-17T08:15:55;1.24;75.74
73570;SHT30;61850;54.980;73.298;2023-03-17T08:18:22;1.33;75.25
73570;SHT30;61850;54.980;73.298;2023-03-17T08:20:48;1.38;75.34
73570;SHT30;61850;54.980;73.298;2023-03-17T08:23:16;1.40;74.94
73570;SHT30;61850;54.980;73.298;2023-03-17T08:25:43;1.55;74.95
73570;SHT30;61850;54.980;73.298;2023-03-17T08:28:10;1.67;74.76
73570;SHT30;61850;54.980;73.298;2023-03-17T08:30:36;1.75;74.41
73570;SHT30;61850;54.980;73.298;2023-03-17T08:33:06;1.71;74.80
73570;SHT30;61850;54.980;73.298;2023-03-17T08:35:32;1.88;73.95
73570;SHT30;61850;54.980;73.298;2023-03-17T08:37:58;1.96;73.47
73570;SHT30;61850;54.980;73.298;2023-03-17T08:40:24;1.89;74.21
73570;SHT30;61850;54.980;73.298;2023-03-17T08:42:51;1.77;74.24
73570;SHT30;61850;54.980;73.298;2023-03-17T08:45:18;1.98;73.80
73570;SHT30;61850;54.980;73.298;2023-03-17T08:47:45;2.41;72.77
73570;SHT30;61850;54.980;73.298;2023-03-17T08:50:19;3.04;71.24
73570;SHT30;61850;54.980;73.298;2023-03-17T08:52:46;3.78;69.68
73570;SHT30;61850;54.980;73.298;2023-03-17T08:55:14;3.85;68.56
73570;SHT30;61850;54.980;73.298;2023-03-17T08:57:41;3.95;67.61
73570;SHT30;61850;54.980;73.298;2023-03-17T09:00:10;4.53;66.51
73570;SHT30;61850;54.980;73.298;2023-03-17T09:02:42;4.91;65.35
73570;SHT30;61850;54.980;73.298;2023-03-17T09:05:10;4.83;65.40
73570;SHT30;61850;54.980;73.298;2023-03-17T09:07:38;5.40;64.31
73570;SHT30;61850;54.980;73.298;2023-03-17T09:10:05;5.38;63.25
73570;SHT30;61850;54.980;73.298;2023-03-17T09:12:31;5.18;63.39
73570;SHT30;61850;54.980;73.298;2023-03-17T09:14:58;5.93;61.92
73570;SHT30;61850;54.980;73.298;2023-03-17T09:17:36;6.13;60.99
73570;SHT30;61850;54.980;73.298;2023-03-17T09:20:02;6.44;60.76
73570;SHT30;61850;54.980;73.298;2023-03-17T09:22:31;6.44;59.98
73570;SHT30;61850;54.980;73.298;2023-03-17T09:24:57;6.93;58.90
73570;SHT30;61850;54.980;73.298;2023-03-17T09:27:23;6.93;58.72
73570;SHT30;61850;54.980;73.298;2023-03-17T09:30:00;7.38;57.55
73570;SHT30;61850;54.980;73.298;2023-03-17T09:32:26;7.17;57.43
73570;SHT30;61850;54.980;73.298;2023-03-17T09:34:52;6.38;59.17
73570;SHT30;61850;54.980;73.298;2023-03-17T09:37:19;6.58;58.94
73570;SHT30;61850;54.980;73.298;2023-03-17T09:39:48;6.95;58.56
73570;SHT30;61850;54.980;73.298;2023-03-17T09:42:32;7.40;57.77
73570;SHT30;61850;54.980;73.298;2023-03-17T09:45:11;6.71;58.67
73570;SHT30;61850;54.980;73.298;2023-03-17T09:50:14;6.62;58.77
73570;SHT30;61850;54.980;73.298;2023-03-17T09:52:53;6.77;58.22
73570;SHT30;61850;54.980;73.298;2023-03-17T09:55:30;6.77;59.21
73570;SHT30;61850;54.980;73.298;2023-03-17T09:57:57;7.01;58.22
73570;SHT30;61850;54.980;73.298;2023-03-17T10:00:24;7.00;58.13
73570;SHT30;61850;54.980;73.298;2023-03-17T10:02:56;6.92;57.53
73570;SHT30;61850;54.980;73.298;2023-03-17T10:05:24;7.21;57.13
73570;SHT30;61850;54.980;73.298;2023-03-17T10:10:29;7.54;56.28
73570;SHT30;61850;54.980;73.298;2023-03-17T10:18:25;7.45;56.83
73570;SHT30;61850;54.980;73.298;2023-03-17T10:21:02;7.51;56.33
73570;SHT30;61850;54.980;73.298;2023-03-17T10:23:30;7.54;56.10
73570;SHT30;61850;54.980;73.298;2023-03-17T10:25:58;7.61;55.19
73570;SHT30;61850;54.980;73.298;2023-03-17T10:28:28;7.41;55.09
73570;SHT30;61850;54.980;73.298;2023-03-17T10:33:37;7.13;56.79
73570;SHT30;61850;54.980;73.298;2023-03-17T10:36:07;7.38;55.52
73570;SHT30;61850;54.980;73.298;2023-03-17T10:38:36;7.21;55.43
73570;SHT30;61850;54.980;73.298;2023-03-17T10:41:07;6.92;57.08
73570;SHT30;61850;54.980;73.298;2023-03-17T10:43:36;6.85;55.80
73570;SHT30;61850;54.980;73.298;2023-03-17T10:46:18;7.11;55.72
73570;SHT30;61850;54.980;73.298;2023-03-17T10:49:07;6.90;56.66
73570;SHT30;61850;54.980;73.298;2023-03-17T10:51:46;6.59;57.37
73570;SHT30;61850;54.980;73.298;2023-03-17T10:54:16;6.68;56.94
73570;SHT30;61850;54.980;73.298;2023-03-17T10:56:48;6.95;57.09
73570;SHT30;61850;54.980;73.298;2023-03-17T10:59:18;7.06;55.61
73570;SHT30;61850;54.980;73.298;2023-03-17T11:02:19;7.25;55.60
73570;SHT30;61850;54.980;73.298;2023-03-17T11:04:38;7.10;55.99
73570;SHT30;61850;54.980;73.298;2023-03-17T11:07:18;7.07;56.21
73570;SHT30;61850;54.980;73.298;2023-03-17T11:09:59;7.27;55.84
73570;SHT30;61850;54.980;73.298;2023-03-17T11:12:29;7.31;55.44
73570;SHT30;61850;54.980;73.298;2023-03-17T11:14:59;7.30;55.30
73570;SHT30;61850;54.980;73.298;2023-03-17T11:20:26;7.01;56.08
73570;SHT30;61850;54.980;73.298;2023-03-17T11:23:17;6.97;56.12
73570;SHT30;61850;54.980;73.298;2023-03-17T11:25:48;6.97;56.07
73570;SHT30;61850;54.980;73.298;2023-03-17T11:28:20;6.87;55.52
73570;SHT30;61850;54.980;73.298;2023-03-17T11:30:52;6.76;55.87
73570;SHT30;61850;54.980;73.298;2023-03-17T11:38:22;6.34;57.21
73570;SHT30;61850;54.980;73.298;2023-03-17T11:46:08;5.94;57.59
73570;SHT30;61850;54.980;73.298;2023-03-17T11:48:41;5.58;58.07
73570;SHT30;61850;54.980;73.298;2023-03-17T12:05:02;1.65;68.96
73570;SHT30;61850;54.980;73.298;2023-03-17T12:10:29;1.03;70.83
73570;SHT30;61850;54.980;73.298;2023-03-17T12:13:01;0.62;72.46
73570;SHT30;61850;54.980;73.298;2023-03-17T12:15:36;0.54;72.79
73570;SHT30;61850;54.980;73.298;2023-03-17T12:26:07;-0.22;75.78
73570;SHT30;61850;54.980;73.298;2023-03-17T12:28:40;-0.49;76.62
73570;SHT30;61850;54.980;73.298;2023-03-17T12:31:27;-0.70;77.43
73570;SHT30;61850;54.980;73.298;2023-03-17T12:34:12;-0.25;76.77
73570;SHT30;61850;54.980;73.298;2023-03-17T12:36:43;0.20;75.31
73570;SHT30;61850;54.980;73.298;2023-03-17T12:39:13;0.36;74.19
73570;SHT30;61850;54.980;73.298;2023-03-17T12:41:46;0.54;73.95
73570;SHT30;61850;54.980;73.298;2023-03-17T12:49:36;0.27;74.10
73570;SHT30;61850;54.980;73.298;2023-03-17T12:52:23;0.23;74.42
73570;SHT30;61850;54.980;73.298;2023-03-17T12:54:50;0.03;74.91
73570;SHT30;61850;54.980;73.298;2023-03-17T12:57:19;-0.13;74.85
73570;SHT30;61850;54.980;73.298;2023-03-17T12:59:46;-0.38;75.80
73570;SHT30;61850;54.980;73.298;2023-03-17T13:02:30;-0.75;76.59
73570;SHT30;61850;54.980;73.298;2023-03-17T13:04:58;-0.96;77.29
73570;SHT30;61850;54.980;73.298;2023-03-17T13:12:57;-1.71;79.43
73570;SHT30;61850;54.980;73.298;2023-03-17T13:20:37;-2.27;81.37
73570;SHT30;61850;54.980;73.298;2023-03-17T13:30:43;-2.60;82.51
73570;SHT30;61850;54.980;73.298;2023-03-17T13:33:21;-2.71;82.85
73570;SHT30;61850;54.980;73.298;2023-03-17T13:40:52;-2.99;83.70
73570;SHT30;61850;54.980;73.298;2023-03-17T13:45:46;-3.06;83.93
73570;SHT30;61850;54.980;73.298;2023-03-17T13:53:38;-3.30;84.48
73570;SHT30;61850;54.980;73.298;2023-03-17T14:01:25;-3.50;85.27
73570;SHT30;61850;54.980;73.298;2023-03-17T14:03:58;-3.52;85.20
73570;SHT30;61850;54.980;73.298;2023-03-17T14:06:27;-3.60;85.46
73570;SHT30;61850;54.980;73.298;2023-03-17T14:09:01;-3.72;85.67
73570;SHT30;61850;54.980;73.298;2023-03-17T14:11:36;-3.81;85.92
73570;SHT30;61850;54.980;73.298;2023-03-17T14:16:56;-3.99;86.11
73570;SHT30;61850;54.980;73.298;2023-03-17T14:19:26;-4.06;86.34
73570;SHT30;61850;54.980;73.298;2023-03-17T14:21:53;-4.10;86.64
73570;SHT30;61850;54.980;73.298;2023-03-17T14:26:46;-4.29;86.59
73570;SHT30;61850;54.980;73.298;2023-03-17T14:29:14;-4.43;86.90
73570;SHT30;61850;54.980;73.298;2023-03-17T14:31:45;-4.50;87.11
73570;SHT30;61850;54.980;73.298;2023-03-17T14:34:13;-4.61;87.39
73570;SHT30;61850;54.980;73.298;2023-03-17T14:36:40;-4.61;87.34
73570;SHT30;61850;54.980;73.298;2023-03-17T14:39:06;-4.67;87.22
73570;SHT30;61850;54.980;73.298;2023-03-17T14:41:33;-4.81;87.57
73570;SHT30;61850;54.980;73.298;2023-03-17T14:44:01;-4.96;87.85
73570;SHT30;61850;54.980;73.298;2023-03-17T14:46:34;-5.10;87.92
73570;SHT30;61850;54.980;73.298;2023-03-17T14:49:13;-5.44;88.31
73570;SHT30;61850;54.980;73.298;2023-03-17T14:51:50;-5.64;88.99
73570;SHT30;61850;54.980;73.298;2023-03-17T14:54:18;-5.81;89.11
73570;SHT30;61850;54.980;73.298;2023-03-17T14:56:52;-5.85;89.55
73570;SHT30;61850;54.980;73.298;2023-03-17T15:01:55;-6.06;89.36
73570;SHT30;61850;54.980;73.298;2023-03-17T15:04:24;-6.26;89.41
73570;SHT30;61850;54.980;73.298;2023-03-17T15:06:56;-6.33;89.41
73570;SHT30;61850;54.980;73.298;2023-03-17T15:09:56;-6.54;89.17
73570;SHT30;61850;54.980;73.298;2023-03-17T15:12:16;-6.56;89.05
73570;SHT30;61850;54.980;73.298;2023-03-17T15:14:44;-6.63;88.84
73570;SHT30;61850;54.980;73.298;2023-03-17T15:17:16;-6.77;89.24
73570;SHT30;61850;54.980;73.298;2023-03-17T15:19:44;-6.89;89.78
73570;SHT30;61850;54.980;73.298;2023-03-17T15:25:02;-7.25;89.10
73570;SHT30;61850;54.980;73.298;2023-03-17T15:27:41;-7.60;89.70
73570;SHT30;61850;54.980;73.298;2023-03-17T15:30:08;-7.73;90.39
73570;SHT30;61850;54.980;73.298;2023-03-17T15:32:37;-7.85;90.73
73570;SHT30;61850;54.980;73.298;2023-03-17T15:35:06;-7.84;90.62
73570;SHT30;61850;54.980;73.298;2023-03-17T15:37:33;-7.94;90.39
73570;SHT30;61850;54.980;73.298;2023-03-17T15:40:03;-7.98;90.39
73570;SHT30;61850;54.980;73.298;2023-03-17T15:42:41;-8.08;91.02
73570;SHT30;61850;54.980;73.298;2023-03-17T15:45:16;-8.12;91.22
73570;SHT30;61850;54.980;73.298;2023-03-17T15:47:43;-8.22;91.48
73570;SHT30;61850;54.980;73.298;2023-03-17T15:52:42;-8.36;92.27
73570;SHT30;61850;54.980;73.298;2023-03-17T15:55:19;-8.29;92.35
73570;SHT30;61850;54.980;73.298;2023-03-17T15:57:46;-8.36;92.42
73570;SHT30;61850;54.980;73.298;2023-03-17T16:00:19;-8.35;92.40
73570;SHT30;61850;54.980;73.298;2023-03-17T16:02:46;-8.25;92.65
73570;SHT30;61850;54.980;73.298;2023-03-17T16:05:19;-8.21;92.45
73570;SHT30;61850;54.980;73.298;2023-03-17T16:07:46;-8.16;92.01
73570;SHT30;61850;54.980;73.298;2023-03-17T16:10:21;-8.08;92.05
73570;SHT30;61850;54.980;73.298;2023-03-17T16:12:48;-8.16;91.67
73570;SHT30;61850;54.980;73.298;2023-03-17T16:15:15;-8.22;91.75
73570;SHT30;61850;54.980;73.298;2023-03-17T16:17:46;-8.12;91.63
73570;SHT30;61850;54.980;73.298;2023-03-17T16:20:17;-8.21;91.67
73570;SHT30;61850;54.980;73.298;2023-03-17T16:22:45;-8.25;92.00
73570;SHT30;61850;54.980;73.298;2023-03-17T16:25:22;-8.14;91.88
73570;SHT30;61850;54.980;73.298;2023-03-17T16:27:58;-8.05;91.88
73570;SHT30;61850;54.980;73.298;2023-03-17T16:30:29;-8.06;91.83
73570;SHT30;61850;54.980;73.298;2023-03-17T16:33:00;-8.14;91.81
73570;SHT30;61850;54.980;73.298;2023-03-17T16:35:32;-8.33;92.49
73570;SHT30;61850;54.980;73.298;2023-03-17T16:38:01;-8.26;92.54
73570;SHT30;61850;54.980;73.298;2023-03-17T16:40:28;-8.30;92.48
73570;SHT30;61850;54.980;73.298;2023-03-17T16:43:00;-8.36;92.74
73570;SHT30;61850;54.980;73.298;2023-03-17T16:45:28;-8.49;92.75
73570;SHT30;61850;54.980;73.298;2023-03-17T16:48:00;-8.46;92.59
73570;SHT30;61850;54.980;73.298;2023-03-17T16:50:29;-8.53;92.74
73570;SHT30;61850;54.980;73.298;2023-03-17T16:52:55;-8.58;92.58
73570;SHT30;61850;54.980;73.298;2023-03-17T16:55:29;-8.46;92.47
73570;SHT30;61850;54.980;73.298;2023-03-17T16:57:58;-8.64;92.42
73570;SHT30;61850;54.980;73.298;2023-03-17T17:00:36;-8.64;92.66
73570;SHT30;61850;54.980;73.298;2023-03-17T17:03:03;-8.70;92.93
73570;SHT30;61850;54.980;73.298;2023-03-17T17:05:29;-8.67;93.09
73570;SHT30;61850;54.980;73.298;2023-03-17T17:07:57;-8.65;92.85
73570;SHT30;61850;54.980;73.298;2023-03-17T17:10:25;-8.70;92.59
73570;SHT30;61850;54.980;73.298;2023-03-17T17:12:52;-8.73;92.52
73570;SHT30;61850;54.980;73.298;2023-03-17T17:15:23;-8.70;92.51
73570;SHT30;61850;54.980;73.298;2023-03-17T17:17:54;-8.68;92.45
73570;SHT30;61850;54.980;73.298;2023-03-17T17:20:36;-8.81;93.15
73570;SHT30;61850;54.980;73.298;2023-03-17T17:23:05;-8.76;93.10
73570;SHT30;61850;54.980;73.298;2023-03-17T17:25:32;-8.65;92.94
73570;SHT30;61850;54.980;73.298;2023-03-17T17:27:58;-8.67;92.93
73570;SHT30;61850;54.980;73.298;2023-03-17T17:30:25;-8.73;92.62
73570;SHT30;61850;54.980;73.298;2023-03-17T17:32:56;-8.70;92.75